sensor_id;sensor_type;location;lat;lon;timestamp;pressure;altitude;pressure_sealevel;temperature;humidity
63090;BME280;49174;43.198;27.824;2023-07-22T00:01:51;101494.31;;;22.14;100.00
63090;BME280;49174;43.198;27.824;2023-07-22T00:04:17;101497.16;;;22.19;100.00
63090;BME280;49174;43.198;27.824;2023-07-22T00:06:42;101487.56;;;22.21;100.00
63090;BME280;49174;43.198;27.824;2023-07-22T00:09:08;101496.13;;;22.25;100.00
63090;BME280;49174;43.198;27.824;2023-07-22T00:11:35;101478.94;;;22.35;100.00
63090;BME280;49174;43.198;27.824;2023-07-22T00:14:01;101477.84;;;22.36;100.00
63090;BME280;49174;43.198;27.824;2023-07-22T00:16:26;101477.78;;;22.30;100.00
63090;BME280;49174;43.198;27.824;2023-07-22T00:18:54;101471.47;;;22.30;100.00
63090;BME280;49174;43.198;27.824;2023-07-22T00:21:20;101473.06;;;22.26;100.00
63090;BME280;49174;43.198;27.824;2023-07-22T00:23:45;101467.00;;;22.24;100.00
63090;BME280;49174;43.198;27.824;2023-07-22T00:26:11;101458.75;;;22.24;100.00
63090;BME280;49174;43.198;27.824;2023-07-22T00:28:36;101455.19;;;22.23;100.00
63090;BME280;49174;43.198;27.824;2023-07-22T00:31:02;101458.41;;;22.20;100.00
63090;BME280;49174;43.198;27.824;2023-07-22T00:33:28;101463.34;;;22.18;100.00
63090;BME280;49174;43.198;27.824;2023-07-22T00:35:54;101460.00;;;22.16;100.00
63090;BME280;49174;43.198;27.824;2023-07-22T00:38:19;101454.50;;;22.16;100.00
63090;BME280;49174;43.198;27.824;2023-07-22T00:40:45;101449.81;;;22.17;100.00
63090;BME280;49174;43.198;27.824;2023-07-22T00:43:11;101444.59;;;22.15;100.00
63090;BME280;49174;43.198;27.824;2023-07-22T00:45:36;101431.09;;;22.14;100.00
63090;BME280;49174;43.198;27.824;2023-07-22T00:48:04;101428.03;;;22.10;100.00
63090;BME280;49174;43.198;27.824;2023-07-22T00:50:30;101427.53;;;22.13;100.00
63090;BME280;49174;43.198;27.824;2023-07-22T00:52:57;101422.56;;;22.10;100.00
63090;BME280;49174;43.198;27.824;2023-07-22T00:55:22;101426.34;;;22.04;100.00
63090;BME280;49174;43.198;27.824;2023-07-22T00:57:48;101424.59;;;21.98;100.00
63090;BME280;49174;43.198;27.824;2023-07-22T01:00:14;101426.44;;;21.92;100.00
63090;BME280;49174;43.198;27.824;2023-07-22T01:02:42;101419.81;;;21.88;100.00
63090;BME280;49174;43.198;27.824;2023-07-22T01:05:08;101424.50;;;21.88;100.00
63090;BME280;49174;43.198;27.824;2023-07-22T01:07:36;101425.56;;;21.86;100.00
63090;BME280;49174;43.198;27.824;2023-07-22T01:10:02;101426.66;;;21.85;100.00
63090;BME280;49174;43.198;27.824;2023-07-22T01:12:28;101417.31;;;21.86;100.00
63090;BME280;49174;43.198;27.824;2023-07-22T01:14:54;101414.31;;;21.88;100.00
63090;BME280;49174;43.198;27.824;2023-07-22T01:17:20;101420.63;;;21.89;100.00
63090;BME280;49174;43.198;27.824;2023-07-22T01:19:46;101420.41;;;21.90;100.00
63090;BME280;49174;43.198;27.824;2023-07-22T01:22:13;101421.28;;;21.96;100.00
63090;BME280;49174;43.198;27.824;2023-07-22T01:24:39;101410.31;;;21.96;100.00
63090;BME280;49174;43.198;27.824;2023-07-22T01:27:08;101412.25;;;22.00;100.00
63090;BME280;49174;43.198;27.824;2023-07-22T01:29:35;101409.00;;;22.03;100.00
63090;BME280;49174;43.198;27.824;2023-07-22T01:32:01;101403.78;;;22.02;100.00
63090;BME280;49174;43.198;27.824;2023-07-22T01:34:27;101403.00;;;22.06;100.00
63090;BME280;49174;43.198;27.824;2023-07-22T01:36:52;101400.00;;;22.08;100.00
63090;BME280;49174;43.198;27.824;2023-07-22T01:39:19;101395.59;;;22.07;100.00
63090;BME280;49174;43.198;27.824;2023-07-22T01:41:46;101398.59;;;22.05;100.00
63090;BME280;49174;43.198;27.824;2023-07-22T01:44:11;101377.13;;;22.02;100.00
63090;BME280;49174;43.198;27.824;2023-07-22T01:46:37;101379.63;;;22.04;100.00
63090;BME280;49174;43.198;27.824;2023-07-22T01:49:11;101382.88;;;22.01;100.00
63090;BME280;49174;43.198;27.824;2023-07-22T01:51:38;101379.81;;;21.97;100.00
63090;BME280;49174;43.198;27.824;2023-07-22T01:54:04;101380.63;;;21.98;100.00
63090;BME280;49174;43.198;27.824;2023-07-22T01:56:30;101384.47;;;21.97;100.00
63090;BME280;49174;43.198;27.824;2023-07-22T01:58:55;101376.47;;;21.95;100.00
63090;BME280;49174;43.198;27.824;2023-07-22T02:01:21;101368.28;;;22.00;100.00
63090;BME280;49174;43.198;27.824;2023-07-22T02:03:46;101363.06;;;21.99;100.00
63090;BME280;49174;43.198;27.824;2023-07-22T02:06:12;101365.81;;;21.99;100.00
63090;BME280;49174;43.198;27.824;2023-07-22T02:08:38;101376.22;;;21.97;100.00
63090;BME280;49174;43.198;27.824;2023-07-22T02:11:06;101378.69;;;21.93;100.00
63090;BME280;49174;43.198;27.824;2023-07-22T02:13:33;101370.09;;;21.90;100.00
63090;BME280;49174;43.198;27.824;2023-07-22T02:15:59;101386.56;;;21.90;100.00
63090;BME280;49174;43.198;27.824;2023-07-22T02:18:25;101387.69;;;21.89;100.00
63090;BME280;49174;43.198;27.824;2023-07-22T02:20:51;101393.75;;;21.91;100.00
63090;BME280;49174;43.198;27.824;2023-07-22T02:23:16;101399.81;;;21.93;100.00
63090;BME280;49174;43.198;27.824;2023-07-22T02:25:43;101400.31;;;21.90;100.00
63090;BME280;49174;43.198;27.824;2023-07-22T02:28:09;101399.25;;;21.91;100.00
63090;BME280;49174;43.198;27.824;2023-07-22T02:30:36;101391.81;;;21.91;100.00
63090;BME280;49174;43.198;27.824;2023-07-22T02:33:05;101383.13;;;21.99;100.00
63090;BME280;49174;43.198;27.824;2023-07-22T02:35:30;101383.13;;;21.99;100.00
63090;BME280;49174;43.198;27.824;2023-07-22T02:37:56;101382.81;;;21.96;100.00
63090;BME280;49174;43.198;27.824;2023-07-22T02:40:21;101388.31;;;21.96;100.00
63090;BME280;49174;43.198;27.824;2023-07-22T02:42:47;101395.47;;;21.97;100.00
63090;BME280;49174;43.198;27.824;2023-07-22T02:45:12;101397.44;;;22.01;100.00
63090;BME280;49174;43.198;27.824;2023-07-22T02:47:38;101398.69;;;22.16;100.00
63090;BME280;49174;43.198;27.824;2023-07-22T02:50:06;101401.19;;;22.17;100.00
63090;BME280;49174;43.198;27.824;2023-07-22T02:52:31;101399.09;;;22.24;100.00
63090;BME280;49174;43.198;27.824;2023-07-22T02:55:09;101377.75;;;22.37;100.00
63090;BME280;49174;43.198;27.824;2023-07-22T02:57:37;101388.81;;;22.42;100.00
63090;BME280;49174;43.198;27.824;2023-07-22T03:00:04;101401.44;;;22.38;100.00
63090;BME280;49174;43.198;27.824;2023-07-22T03:02:34;101397.59;;;22.39;100.00
63090;BME280;49174;43.198;27.824;2023-07-22T03:05:00;101394.25;;;22.37;100.00
63090;BME280;49174;43.198;27.824;2023-07-22T03:07:25;101403.38;;;22.37;100.00
63090;BME280;49174;43.198;27.824;2023-07-22T03:09:54;101412.75;;;22.41;100.00
63090;BME280;49174;43.198;27.824;2023-07-22T03:12:19;101419.38;;;22.45;100.00
63090;BME280;49174;43.198;27.824;2023-07-22T03:14:45;101433.16;;;22.50;100.00
63090;BME280;49174;43.198;27.824;2023-07-22T03:17:11;101440.91;;;22.53;100.00
63090;BME280;49174;43.198;27.824;2023-07-22T03:19:39;101454.44;;;22.60;100.00
63090;BME280;49174;43.198;27.824;2023-07-22T03:22:05;101455.03;;;22.62;100.00
63090;BME280;49174;43.198;27.824;2023-07-22T03:24:31;101464.66;;;22.65;100.00
63090;BME280;49174;43.198;27.824;2023-07-22T03:26:56;101464.41;;;22.66;100.00
63090;BME280;49174;43.198;27.824;2023-07-22T03:29:22;101468.28;;;22.70;100.00
63090;BME280;49174;43.198;27.824;2023-07-22T03:31:49;101462.28;;;22.73;100.00
63090;BME280;49174;43.198;27.824;2023-07-22T03:34:15;101455.16;;;22.78;100.00
63090;BME280;49174;43.198;27.824;2023-07-22T03:36:41;101453.28;;;22.83;100.00
63090;BME280;49174;43.198;27.824;2023-07-22T03:39:06;101447.53;;;22.85;100.00
63090;BME280;49174;43.198;27.824;2023-07-22T03:41:33;101431.03;;;22.90;100.00
63090;BME280;49174;43.198;27.824;2023-07-22T03:43:58;101424.47;;;22.91;100.00
63090;BME280;49174;43.198;27.824;2023-07-22T03:46:23;101441.69;;;23.08;100.00
63090;BME280;49174;43.198;27.824;2023-07-22T03:48:49;101441.19;;;23.16;100.00
63090;BME280;49174;43.198;27.824;2023-07-22T03:51:14;101440.13;;;23.23;100.00
63090;BME280;49174;43.198;27.824;2023-07-22T03:53:40;101438.53;;;23.27;100.00
63090;BME280;49174;43.198;27.824;2023-07-22T03:56:05;101441.28;;;23.27;100.00
63090;BME280;49174;43.198;27.824;2023-07-22T03:58:31;101440.22;;;23.33;100.00
63090;BME280;49174;43.198;27.824;2023-07-22T04:00:56;101449.34;;;23.38;100.00
63090;BME280;49174;43.198;27.824;2023-07-22T04:03:22;101431.75;;;23.45;100.00
63090;BME280;49174;43.198;27.824;2023-07-22T04:05:55;101429.84;;;23.50;100.00
63090;BME280;49174;43.198;27.824;2023-07-22T04:08:20;101424.41;;;23.60;100.00
63090;BME280;49174;43.198;27.824;2023-07-22T04:10:53;101427.19;;;23.66;100.00
63090;BME280;49174;43.198;27.824;2023-07-22T04:13:19;101437.69;;;23.69;100.00
63090;BME280;49174;43.198;27.824;2023-07-22T04:15:44;101432.50;;;23.77;100.00
63090;BME280;49174;43.198;27.824;2023-07-22T04:18:10;101432.81;;;23.86;100.00
63090;BME280;49174;43.198;27.824;2023-07-22T04:20:35;101430.63;;;23.88;100.00
63090;BME280;49174;43.198;27.824;2023-07-22T04:23:01;101430.91;;;23.92;100.00
63090;BME280;49174;43.198;27.824;2023-07-22T04:25:26;101418.50;;;23.89;100.00
63090;BME280;49174;43.198;27.824;2023-07-22T04:27:52;101422.38;;;23.98;100.00
63090;BME280;49174;43.198;27.824;2023-07-22T04:30:17;101418.25;;;24.01;100.00
63090;BME280;49174;43.198;27.824;2023-07-22T04:32:49;101414.13;;;24.03;100.00
63090;BME280;49174;43.198;27.824;2023-07-22T04:35:18;101412.53;;;24.13;100.00
63090;BME280;49174;43.198;27.824;2023-07-22T04:37:44;101418.31;;;24.26;100.00
63090;BME280;49174;43.198;27.824;2023-07-22T04:40:11;101424.69;;;24.32;100.00
63090;BME280;49174;43.198;27.824;2023-07-22T04:42:41;101427.44;;;24.37;100.00
63090;BME280;49174;43.198;27.824;2023-07-22T04:45:08;101429.41;;;24.42;100.00
63090;BME280;49174;43.198;27.824;2023-07-22T04:47:35;101426.94;;;24.45;100.00
63090;BME280;49174;43.198;27.824;2023-07-22T04:50:01;101427.53;;;24.52;100.00
63090;BME280;49174;43.198;27.824;2023-07-22T04:52:27;101444.91;;;24.58;100.00
63090;BME280;49174;43.198;27.824;2023-07-22T04:54:53;101442.16;;;24.63;100.00
63090;BME280;49174;43.198;27.824;2023-07-22T04:57:20;101442.69;;;24.65;100.00
63090;BME280;49174;43.198;27.824;2023-07-22T04:59:46;101438.56;;;24.68;100.00
63090;BME280;49174;43.198;27.824;2023-07-22T05:02:12;101443.00;;;24.69;100.00
63090;BME280;49174;43.198;27.824;2023-07-22T05:04:37;101433.63;;;24.75;100.00
63090;BME280;49174;43.198;27.824;2023-07-22T05:07:03;101441.06;;;24.80;100.00
63090;BME280;49174;43.198;27.824;2023-07-22T05:09:29;101440.22;;;24.84;100.00
63090;BME280;49174;43.198;27.824;2023-07-22T05:11:55;101441.91;;;24.80;100.00
63090;BME280;49174;43.198;27.824;2023-07-22T05:14:20;101452.94;;;24.80;100.00
63090;BME280;49174;43.198;27.824;2023-07-22T05:16:46;101444.94;;;24.84;100.00
63090;BME280;49174;43.198;27.824;2023-07-22T05:19:11;101452.91;;;24.90;100.00
63090;BME280;49174;43.198;27.824;2023-07-22T05:21:36;101452.66;;;24.97;100.00
63090;BME280;49174;43.198;27.824;2023-07-22T05:24:03;101450.72;;;25.08;100.00
63090;BME280;49174;43.198;27.824;2023-07-22T05:26:29;101438.56;;;25.14;100.00
63090;BME280;49174;43.198;27.824;2023-07-22T05:28:56;101438.03;;;25.22;100.00
63090;BME280;49174;43.198;27.824;2023-07-22T05:31:22;101432.47;;;25.32;100.00
63090;BME280;49174;43.198;27.824;2023-07-22T05:33:48;101436.91;;;25.38;100.00
63090;BME280;49174;43.198;27.824;2023-07-22T05:36:13;101423.09;;;25.44;100.00
63090;BME280;49174;43.198;27.824;2023-07-22T05:38:39;101425.84;;;25.38;100.00
63090;BME280;49174;43.198;27.824;2023-07-22T05:41:04;101423.66;;;25.30;100.00
63090;BME280;49174;43.198;27.824;2023-07-22T05:43:30;101421.41;;;25.42;100.00
63090;BME280;49174;43.198;27.824;2023-07-22T05:45:55;101429.94;;;25.51;100.00
63090;BME280;49174;43.198;27.824;2023-07-22T05:48:21;101421.97;;;25.50;100.00
63090;BME280;49174;43.198;27.824;2023-07-22T05:50:46;101420.25;;;25.59;100.00
63090;BME280;49174;43.198;27.824;2023-07-22T05:53:13;101424.09;;;25.68;100.00
63090;BME280;49174;43.198;27.824;2023-07-22T05:55:38;101420.19;;;25.79;100.00
63090;BME280;49174;43.198;27.824;2023-07-22T05:58:04;101414.66;;;25.90;100.00
63090;BME280;49174;43.198;27.824;2023-07-22T06:00:33;101411.56;;;25.96;97.14
63090;BME280;49174;43.198;27.824;2023-07-22T06:13:54;101378.22;;;26.95;94.37
63090;BME280;49174;43.198;27.824;2023-07-22T06:16:20;101369.25;;;27.09;93.78
63090;BME280;49174;43.198;27.824;2023-07-22T06:18:45;101373.47;;;27.01;90.48
63090;BME280;49174;43.198;27.824;2023-07-22T06:21:11;101367.56;;;27.08;92.56
63090;BME280;49174;43.198;27.824;2023-07-22T06:23:36;101365.16;;;27.30;89.48
63090;BME280;49174;43.198;27.824;2023-07-22T06:26:02;101366.56;;;27.52;84.41
63090;BME280;49174;43.198;27.824;2023-07-22T06:28:28;101361.06;;;27.71;86.08
63090;BME280;49174;43.198;27.824;2023-07-22T06:30:53;101358.28;;;27.95;75.66
63090;BME280;49174;43.198;27.824;2023-07-22T06:33:19;101359.53;;;28.02;79.10
63090;BME280;49174;43.198;27.824;2023-07-22T06:35:44;101364.41;;;28.11;81.34
63090;BME280;49174;43.198;27.824;2023-07-22T06:38:10;101359.75;;;28.25;79.57
63090;BME280;49174;43.198;27.824;2023-07-22T06:40:35;101371.63;;;28.31;71.43
63090;BME280;49174;43.198;27.824;2023-07-22T06:43:01;101372.00;;;28.43;68.73
63090;BME280;49174;43.198;27.824;2023-07-22T06:45:26;101379.31;;;28.52;69.38
63090;BME280;49174;43.198;27.824;2023-07-22T06:47:52;101372.38;;;28.69;69.31
63090;BME280;49174;43.198;27.824;2023-07-22T06:50:20;101378.22;;;28.86;65.13
63090;BME280;49174;43.198;27.824;2023-07-22T06:52:46;101377.88;;;29.07;67.36
63090;BME280;49174;43.198;27.824;2023-07-22T06:55:11;101378.72;;;29.21;66.27
63090;BME280;49174;43.198;27.824;2023-07-22T06:57:37;101371.53;;;29.34;62.83
63090;BME280;49174;43.198;27.824;2023-07-22T07:00:04;101377.19;;;29.43;62.67
63090;BME280;49174;43.198;27.824;2023-07-22T07:02:30;101371.91;;;29.55;62.93
63090;BME280;49174;43.198;27.824;2023-07-22T07:04:56;101365.56;;;29.68;60.76
63090;BME280;49174;43.198;27.824;2023-07-22T07:07:21;101362.94;;;29.86;63.18
63090;BME280;49174;43.198;27.824;2023-07-22T07:09:47;101364.44;;;30.05;63.67
63090;BME280;49174;43.198;27.824;2023-07-22T07:12:12;101363.28;;;30.20;61.87
63090;BME280;49174;43.198;27.824;2023-07-22T07:14:38;101366.84;;;30.35;59.84
63090;BME280;49174;43.198;27.824;2023-07-22T07:17:04;101360.41;;;30.48;58.98
63090;BME280;49174;43.198;27.824;2023-07-22T07:19:29;101356.56;;;30.66;60.79
63090;BME280;49174;43.198;27.824;2023-07-22T07:21:55;101352.78;;;30.85;60.29
63090;BME280;49174;43.198;27.824;2023-07-22T07:24:20;101352.41;;;31.09;61.27
63090;BME280;49174;43.198;27.824;2023-07-22T07:26:46;101359.53;;;31.24;59.20
63090;BME280;49174;43.198;27.824;2023-07-22T07:29:12;101363.16;;;31.33;58.79
63090;BME280;49174;43.198;27.824;2023-07-22T07:31:38;101364.03;;;31.42;55.26
63090;BME280;49174;43.198;27.824;2023-07-22T07:34:04;101362.59;;;31.53;58.54
63090;BME280;49174;43.198;27.824;2023-07-22T07:36:29;101371.66;;;31.68;58.81
63090;BME280;49174;43.198;27.824;2023-07-22T07:38:56;101361.34;;;31.77;54.77
63090;BME280;49174;43.198;27.824;2023-07-22T07:41:22;101359.53;;;31.81;53.83
63090;BME280;49174;43.198;27.824;2023-07-22T07:43:47;101359.78;;;31.93;55.27
63090;BME280;49174;43.198;27.824;2023-07-22T07:48:38;101347.63;;;32.33;57.06
63090;BME280;49174;43.198;27.824;2023-07-22T07:51:04;101335.63;;;32.49;57.33
63090;BME280;49174;43.198;27.824;2023-07-22T07:53:29;101340.38;;;32.58;52.80
63090;BME280;49174;43.198;27.824;2023-07-22T07:55:55;101337.72;;;32.70;54.86
63090;BME280;49174;43.198;27.824;2023-07-22T07:58:20;101331.09;;;32.83;52.41
63090;BME280;49174;43.198;27.824;2023-07-22T08:00:46;101334.19;;;32.99;52.90
63090;BME280;49174;43.198;27.824;2023-07-22T08:03:11;101334.94;;;33.17;52.15
63090;BME280;49174;43.198;27.824;2023-07-22T08:05:37;101331.22;;;33.34;53.76
63090;BME280;49174;43.198;27.824;2023-07-22T08:08:02;101320.47;;;33.53;53.82
63090;BME280;49174;43.198;27.824;2023-07-22T08:10:28;101319.66;;;33.74;51.85
63090;BME280;49174;43.198;27.824;2023-07-22T08:12:54;101320.06;;;33.85;49.91
63090;BME280;49174;43.198;27.824;2023-07-22T08:15:19;101321.91;;;33.80;49.83
63090;BME280;49174;43.198;27.824;2023-07-22T08:17:45;101312.84;;;33.84;49.35
63090;BME280;49174;43.198;27.824;2023-07-22T08:20:11;101308.19;;;33.88;49.69
63090;BME280;49174;43.198;27.824;2023-07-22T08:22:36;101305.88;;;33.90;50.51
63090;BME280;49174;43.198;27.824;2023-07-22T08:25:02;101304.38;;;33.92;47.99
63090;BME280;49174;43.198;27.824;2023-07-22T08:27:28;101311.22;;;33.83;45.99
63090;BME280;49174;43.198;27.824;2023-07-22T08:29:53;101305.03;;;33.68;47.17
63090;BME280;49174;43.198;27.824;2023-07-22T08:32:19;101304.63;;;33.78;47.28
63090;BME280;49174;43.198;27.824;2023-07-22T08:34:45;101303.00;;;33.98;47.13
63090;BME280;49174;43.198;27.824;2023-07-22T08:37:10;101293.88;;;34.10;45.47
63090;BME280;49174;43.198;27.824;2023-07-22T08:39:37;101298.91;;;34.17;46.42
63090;BME280;49174;43.198;27.824;2023-07-22T08:42:03;101299.22;;;34.36;45.14
63090;BME280;49174;43.198;27.824;2023-07-22T08:44:32;101295.84;;;34.43;47.85
63090;BME280;49174;43.198;27.824;2023-07-22T08:47:02;101309.31;;;34.50;45.68
63090;BME280;49174;43.198;27.824;2023-07-22T08:49:30;101313.03;;;34.54;44.54
63090;BME280;49174;43.198;27.824;2023-07-22T08:51:56;101306.91;;;34.60;45.19
63090;BME280;49174;43.198;27.824;2023-07-22T08:54:24;101309.13;;;34.67;42.22
63090;BME280;49174;43.198;27.824;2023-07-22T08:56:50;101303.09;;;34.77;45.94
63090;BME280;49174;43.198;27.824;2023-07-22T08:59:19;101299.00;;;34.99;41.84
63090;BME280;49174;43.198;27.824;2023-07-22T09:01:47;101294.59;;;35.10;42.40
63090;BME280;49174;43.198;27.824;2023-07-22T09:04:13;101295.06;;;35.25;41.21
63090;BME280;49174;43.198;27.824;2023-07-22T09:06:41;101283.91;;;35.41;41.48
63090;BME280;49174;43.198;27.824;2023-07-22T09:09:08;101288.94;;;35.60;41.53
63090;BME280;49174;43.198;27.824;2023-07-22T09:11:34;101284.94;;;35.73;40.16
63090;BME280;49174;43.198;27.824;2023-07-22T09:14:02;101286.78;;;35.81;41.39
63090;BME280;49174;43.198;27.824;2023-07-22T09:16:30;101280.78;;;35.95;40.32
63090;BME280;49174;43.198;27.824;2023-07-22T09:18:59;101287.19;;;36.08;40.25
63090;BME280;49174;43.198;27.824;2023-07-22T09:21:24;101272.88;;;36.13;37.56
63090;BME280;49174;43.198;27.824;2023-07-22T09:23:50;101267.56;;;36.23;35.50
63090;BME280;49174;43.198;27.824;2023-07-22T09:26:17;101264.19;;;36.18;47.53
63090;BME280;49174;43.198;27.824;2023-07-22T09:28:54;101264.75;;;35.95;51.36
63090;BME280;49174;43.198;27.824;2023-07-22T09:31:21;101262.19;;;35.90;49.62
63090;BME280;49174;43.198;27.824;2023-07-22T09:33:47;101257.50;;;35.94;50.48
63090;BME280;49174;43.198;27.824;2023-07-22T09:36:13;101258.56;;;35.62;49.75
63090;BME280;49174;43.198;27.824;2023-07-22T09:38:39;101261.63;;;35.20;52.81
63090;BME280;49174;43.198;27.824;2023-07-22T09:41:04;101249.72;;;35.23;53.11
63090;BME280;49174;43.198;27.824;2023-07-22T09:43:30;101248.06;;;34.73;54.39
63090;BME280;49174;43.198;27.824;2023-07-22T09:46:05;101253.09;;;34.34;56.28
63090;BME280;49174;43.198;27.824;2023-07-22T09:48:42;101247.84;;;33.57;59.37
63090;BME280;49174;43.198;27.824;2023-07-22T09:51:14;101248.78;;;34.03;58.15
63090;BME280;49174;43.198;27.824;2023-07-22T09:53:51;101235.34;;;34.30;57.44
63090;BME280;49174;43.198;27.824;2023-07-22T09:56:24;101231.75;;;34.41;56.61
63090;BME280;49174;43.198;27.824;2023-07-22T09:58:51;101239.00;;;34.42;56.22
63090;BME280;49174;43.198;27.824;2023-07-22T10:01:19;101233.34;;;34.63;56.59
63090;BME280;49174;43.198;27.824;2023-07-22T10:03:45;101229.84;;;34.79;56.03
63090;BME280;49174;43.198;27.824;2023-07-22T10:06:12;101233.34;;;34.63;56.84
63090;BME280;49174;43.198;27.824;2023-07-22T10:08:39;101230.16;;;34.53;55.92
63090;BME280;49174;43.198;27.824;2023-07-22T10:11:08;101228.81;;;34.38;55.32
63090;BME280;49174;43.198;27.824;2023-07-22T10:13:36;101217.16;;;34.36;55.19
63090;BME280;49174;43.198;27.824;2023-07-22T10:16:03;101214.63;;;34.55;54.56
63090;BME280;49174;43.198;27.824;2023-07-22T10:18:30;101218.84;;;34.74;54.01
63090;BME280;49174;43.198;27.824;2023-07-22T10:20:57;101220.25;;;34.80;53.28
63090;BME280;49174;43.198;27.824;2023-07-22T10:23:24;101226.34;;;34.94;54.00
63090;BME280;49174;43.198;27.824;2023-07-22T10:25:51;101215.00;;;34.78;52.96
63090;BME280;49174;43.198;27.824;2023-07-22T10:28:19;101216.88;;;34.74;53.49
63090;BME280;49174;43.198;27.824;2023-07-22T10:30:45;101215.00;;;34.78;52.15
63090;BME280;49174;43.198;27.824;2023-07-22T10:33:11;101212.09;;;34.75;52.18
63090;BME280;49174;43.198;27.824;2023-07-22T10:35:42;101205.53;;;34.70;54.07
63090;BME280;49174;43.198;27.824;2023-07-22T10:38:14;101199.03;;;34.91;53.62
63090;BME280;49174;43.198;27.824;2023-07-22T10:40:50;101202.59;;;35.04;50.85
63090;BME280;49174;43.198;27.824;2023-07-22T10:43:17;101216.28;;;34.93;52.22
63090;BME280;49174;43.198;27.824;2023-07-22T10:45:49;101216.75;;;35.07;49.88
63090;BME280;49174;43.198;27.824;2023-07-22T10:48:15;101217.47;;;35.17;51.13
63090;BME280;49174;43.198;27.824;2023-07-22T10:50:51;101217.47;;;35.17;50.16
63090;BME280;49174;43.198;27.824;2023-07-22T10:53:41;101214.31;;;35.18;52.19
63090;BME280;49174;43.198;27.824;2023-07-22T11:12:12;101220.25;;;34.80;53.51
63090;BME280;49174;43.198;27.824;2023-07-22T11:14:41;101215.47;;;34.56;54.54
63090;BME280;49174;43.198;27.824;2023-07-22T11:17:09;101212.66;;;34.68;56.23
63090;BME280;49174;43.198;27.824;2023-07-22T11:19:36;101210.53;;;34.53;57.31
63090;BME280;49174;43.198;27.824;2023-07-22T11:22:03;101202.56;;;34.55;56.06
63090;BME280;49174;43.198;27.824;2023-07-22T11:24:29;101206.94;;;34.64;57.14
63090;BME280;49174;43.198;27.824;2023-07-22T11:26:55;101201.13;;;34.69;55.04
63090;BME280;49174;43.198;27.824;2023-07-22T11:29:21;101205.31;;;34.76;55.09
63090;BME280;49174;43.198;27.824;2023-07-22T11:31:49;101204.13;;;34.77;52.84
63090;BME280;49174;43.198;27.824;2023-07-22T11:34:17;101196.56;;;34.89;54.52
63090;BME280;49174;43.198;27.824;2023-07-22T11:36:43;101201.78;;;35.16;52.49
63090;BME280;49174;43.198;27.824;2023-07-22T11:39:18;101195.09;;;35.32;50.01
63090;BME280;49174;43.198;27.824;2023-07-22T11:41:45;101197.34;;;35.27;50.18
63090;BME280;49174;43.198;27.824;2023-07-22T11:44:12;101194.81;;;35.09;50.11
63090;BME280;49174;43.198;27.824;2023-07-22T11:47:03;101200.63;;;35.04;49.42
63090;BME280;49174;43.198;27.824;2023-07-22T11:52:01;101198.94;;;35.40;49.10
63090;BME280;49174;43.198;27.824;2023-07-22T11:54:28;101185.00;;;35.56;48.25
63090;BME280;49174;43.198;27.824;2023-07-22T11:56:55;101185.41;;;35.30;48.41
63090;BME280;49174;43.198;27.824;2023-07-22T11:59:38;101183.69;;;35.25;46.73
63090;BME280;49174;43.198;27.824;2023-07-22T12:02:04;101182.03;;;35.24;46.61
63090;BME280;49174;43.198;27.824;2023-07-22T12:04:33;101179.19;;;35.36;46.63
63090;BME280;49174;43.198;27.824;2023-07-22T12:07:00;101170.72;;;35.49;46.82
63090;BME280;49174;43.198;27.824;2023-07-22T12:09:26;101178.06;;;35.66;45.24
63090;BME280;49174;43.198;27.824;2023-07-22T12:11:58;101180.84;;;35.78;46.23
63090;BME280;49174;43.198;27.824;2023-07-22T12:14:33;101179.91;;;35.74;46.31
63090;BME280;49174;43.198;27.824;2023-07-22T12:17:00;101183.09;;;35.88;48.56
63090;BME280;49174;43.198;27.824;2023-07-22T12:19:28;101181.22;;;35.92;47.29
63090;BME280;49174;43.198;27.824;2023-07-22T12:21:54;101180.09;;;36.09;47.15
63090;BME280;49174;43.198;27.824;2023-07-22T12:24:20;101176.91;;;36.11;48.36
63090;BME280;49174;43.198;27.824;2023-07-22T12:26:47;101180.94;;;35.82;49.84
63090;BME280;49174;43.198;27.824;2023-07-22T12:29:13;101175.16;;;35.62;50.42
63090;BME280;49174;43.198;27.824;2023-07-22T12:31:38;101174.25;;;35.58;51.29
63090;BME280;49174;43.198;27.824;2023-07-22T12:34:04;101166.97;;;35.69;50.69
63090;BME280;49174;43.198;27.824;2023-07-22T12:36:29;101165.53;;;35.75;50.88
63090;BME280;49174;43.198;27.824;2023-07-22T12:38:55;101172.28;;;35.74;50.28
63090;BME280;49174;43.198;27.824;2023-07-22T12:41:21;101159.50;;;35.49;50.80
63090;BME280;49174;43.198;27.824;2023-07-22T12:43:46;101165.00;;;35.57;51.83
63090;BME280;49174;43.198;27.824;2023-07-22T12:46:12;101169.13;;;35.48;51.18
63090;BME280;49174;43.198;27.824;2023-07-22T12:48:37;101161.38;;;35.57;51.56
63090;BME280;49174;43.198;27.824;2023-07-22T12:51:03;101167.94;;;35.49;51.30
63090;BME280;49174;43.198;27.824;2023-07-22T12:53:28;101157.13;;;35.63;51.48
63090;BME280;49174;43.198;27.824;2023-07-22T12:55:54;101148.47;;;35.68;51.38
63090;BME280;49174;43.198;27.824;2023-07-22T12:58:20;101158.63;;;35.73;51.61
63090;BME280;49174;43.198;27.824;2023-07-22T13:00:46;101163.59;;;35.64;51.33
63090;BME280;49174;43.198;27.824;2023-07-22T13:03:12;101159.03;;;35.59;52.62
63090;BME280;49174;43.198;27.824;2023-07-22T13:05:38;101152.38;;;35.64;51.15